Princetown, New York
Current Conditions -  °F | °C
As of 7:51 PM on Tuesday 21 Oct 2014 (Local Time) from KALB Reporting Station
Overcast Overcast  
Wind Chill: 52°   Ceiling: 5500
Heat Index: 52°   Visibility: 10mi
Dew Point: 48°   Wind: 9mph
Humidity: 86%   Direction: 10°N
Pressure: 29.96"   Gusts: NA
Location:  42.7716°N, 74.0887°W
Report Text: KALB 212351Z 01008KT 10SM FEW010 BKN055 OVC080 11/09 A2996 RMK AO2 SLP145 60000 T01110089 10133 20111 51014
Loading
Personal Weather Stations






























Interactive Weather Map
Tropical Storm Tracking
New forecast layout! Learn more

10-Day Weather Forecast

Advertisements
Track Severe Weather on mobile